createdAt,value
2022-09-11T00:01:31.528Z,100854.00
2022-09-11T00:03:58.668Z,100862.00
2022-09-11T00:06:30.222Z,100860.00
2022-09-11T00:09:02.539Z,100868.00
2022-09-11T00:11:40.338Z,100864.00
2022-09-11T00:14:07.770Z,100858.00
2022-09-11T00:16:39.757Z,100860.00
2022-09-11T00:19:12.136Z,100861.00
2022-09-11T00:21:39.475Z,100861.00
2022-09-11T00:24:09.827Z,100865.00
2022-09-11T00:26:38.055Z,100865.00
2022-09-11T00:29:05.067Z,100865.00
2022-09-11T00:31:32.345Z,100864.00
2022-09-11T00:33:59.445Z,100864.00
2022-09-11T00:36:31.461Z,100863.00
2022-09-11T00:38:59.924Z,100864.00
2022-09-11T00:41:36.136Z,100874.00
2022-09-11T00:44:06.115Z,100860.00
2022-09-11T00:46:55.501Z,100870.00
2022-09-11T00:49:36.684Z,100866.00
2022-09-11T00:52:20.852Z,100859.00
2022-09-11T00:54:53.397Z,100864.00
2022-09-11T00:57:25.885Z,100862.00
2022-09-11T00:59:58.560Z,100856.00
2022-09-11T01:02:29.937Z,100855.00
2022-09-11T01:04:59.398Z,100866.00
2022-09-11T01:07:29.098Z,100868.00
2022-09-11T01:09:56.776Z,100864.00
2022-09-11T01:12:36.610Z,100868.00
2022-09-11T01:15:17.469Z,100865.00
2022-09-11T01:18:10.875Z,100872.00
2022-09-11T01:21:36.780Z,100875.00
2022-09-11T01:24:19.266Z,100879.00
2022-09-11T01:27:25.519Z,100871.00
2022-09-11T01:30:18.252Z,100877.00
2022-09-11T01:32:59.225Z,100880.00
2022-09-11T01:36:06.262Z,100881.00
2022-09-11T01:38:48.247Z,100877.00
2022-09-11T01:41:20.539Z,100869.00
2022-09-11T01:44:03.756Z,100879.00
2022-09-11T01:46:38.511Z,100876.00
2022-09-11T01:49:16.243Z,100886.00
2022-09-11T01:51:43.161Z,100877.00
2022-09-11T01:54:17.038Z,100882.00
2022-09-11T01:56:53.254Z,100878.00
2022-09-11T01:59:28.026Z,100882.00
2022-09-11T02:02:07.912Z,100887.00
2022-09-11T02:04:46.052Z,100876.00
2022-09-11T02:08:04.071Z,100883.00
2022-09-11T02:10:40.607Z,100885.00
2022-09-11T02:13:51.774Z,100885.00
2022-09-11T02:16:30.595Z,100875.00
2022-09-11T02:19:04.734Z,100871.00
2022-09-11T02:21:33.450Z,100873.00
2022-09-11T02:24:01.994Z,100878.00
2022-09-11T02:26:33.998Z,100873.00
2022-09-11T02:29:01.341Z,100873.00
2022-09-11T02:31:28.846Z,100882.00
2022-09-11T02:33:55.603Z,100881.00
2022-09-11T02:37:33.977Z,100888.00
2022-09-11T02:41:00.427Z,100884.00
2022-09-11T02:43:59.052Z,100886.00
2022-09-11T02:46:51.547Z,100897.00
2022-09-11T02:49:24.385Z,100899.00
2022-09-11T02:52:35.967Z,100907.00
2022-09-11T02:55:44.045Z,100904.00
2022-09-11T02:58:26.937Z,100908.00
2022-09-11T03:01:00.167Z,100905.00
2022-09-11T03:03:27.357Z,100915.00
2022-09-11T03:05:54.497Z,100914.00
2022-09-11T03:08:21.908Z,100914.00
2022-09-11T03:10:49.955Z,100898.00
2022-09-11T03:13:16.985Z,100908.00
2022-09-11T03:15:43.884Z,100905.00
2022-09-11T03:18:12.401Z,100897.00
2022-09-11T03:20:39.171Z,100913.00
2022-09-11T03:23:08.214Z,100905.00
2022-09-11T03:25:34.934Z,100912.00
2022-09-11T03:28:04.059Z,100916.00
2022-09-11T03:30:32.097Z,100910.00
2022-09-11T03:33:00.608Z,100919.00
2022-09-11T03:35:28.370Z,100930.00
2022-09-11T03:37:55.618Z,100935.00
2022-09-11T03:40:23.100Z,100932.00
2022-09-11T03:42:49.931Z,100940.00
2022-09-11T03:45:16.876Z,100938.00
2022-09-11T03:47:43.621Z,100940.00
2022-09-11T03:50:11.340Z,100944.00
2022-09-11T03:52:38.719Z,100951.00
2022-09-11T03:55:06.642Z,100957.00
2022-09-11T03:57:34.325Z,100954.00
2022-09-11T04:00:01.542Z,100959.00
2022-09-11T04:02:28.446Z,100968.00
2022-09-11T04:04:55.420Z,100964.00
2022-09-11T04:07:22.454Z,100972.00
2022-09-11T04:09:49.500Z,100974.00
2022-09-11T04:12:16.409Z,100974.00
2022-09-11T04:14:43.145Z,100968.00
2022-09-11T04:17:10.364Z,100967.00
2022-09-11T04:19:37.090Z,100976.00
2022-09-11T04:22:03.955Z,100961.00
2022-09-11T04:24:30.684Z,100964.00
2022-09-11T04:27:00.879Z,100963.00
2022-09-11T04:29:28.697Z,100964.00
2022-09-11T04:31:56.186Z,100968.00
2022-09-11T04:34:22.958Z,100968.00
2022-09-11T04:36:49.898Z,100966.00
2022-09-11T04:39:16.968Z,100979.00
2022-09-11T04:41:44.373Z,100971.00
2022-09-11T04:44:11.199Z,100976.00
2022-09-11T04:46:38.250Z,100965.00
2022-09-11T04:49:04.968Z,100974.00
2022-09-11T04:51:35.395Z,100976.00
2022-09-11T04:54:03.001Z,100972.00
2022-09-11T04:56:34.185Z,100977.00
2022-09-11T04:59:09.598Z,100976.00
2022-09-11T05:01:36.521Z,100975.00
2022-09-11T05:04:03.279Z,100973.00
2022-09-11T05:06:30.942Z,100970.00
2022-09-11T05:09:04.101Z,100969.00
2022-09-11T05:11:31.090Z,100976.00
2022-09-11T05:14:00.960Z,100982.00
2022-09-11T05:16:30.620Z,100984.00
2022-09-11T05:18:58.808Z,100988.00
2022-09-11T05:21:27.665Z,100985.00
2022-09-11T05:23:57.957Z,100979.00
2022-09-11T05:26:32.691Z,100979.00
2022-09-11T05:29:07.414Z,100991.00
2022-09-11T05:31:34.210Z,100994.00
2022-09-11T05:34:01.310Z,100991.00
2022-09-11T05:36:31.012Z,100992.00
2022-09-11T05:38:59.364Z,100988.00
2022-09-11T05:41:26.580Z,100991.00
2022-09-11T05:43:54.669Z,101006.00
2022-09-11T05:46:22.302Z,101013.00
2022-09-11T05:48:49.204Z,101017.00
2022-09-11T05:51:21.404Z,101024.00
2022-09-11T05:53:52.618Z,101038.00
2022-09-11T05:56:22.457Z,101039.00
2022-09-11T05:58:51.748Z,101041.00
2022-09-11T06:01:22.233Z,101048.00
2022-09-11T06:03:49.804Z,101058.00
2022-09-11T06:06:19.436Z,101061.00
2022-09-11T06:08:47.775Z,101056.00
2022-09-11T06:11:17.387Z,101056.00
2022-09-11T06:13:49.354Z,101057.00
2022-09-11T06:16:19.584Z,101066.00
2022-09-11T06:18:49.307Z,101061.00
2022-09-11T06:21:22.802Z,101063.00
2022-09-11T06:23:52.362Z,101069.00
2022-09-11T06:26:25.181Z,101073.00
2022-09-11T06:28:53.557Z,101074.00
2022-09-11T06:31:24.474Z,101069.00
2022-09-11T06:33:51.596Z,101065.00
2022-09-11T06:36:23.005Z,101080.00
2022-09-11T06:38:55.086Z,101087.00
2022-09-11T06:41:22.336Z,101095.00
2022-09-11T06:43:49.349Z,101101.00
2022-09-11T06:46:21.942Z,101096.00
2022-09-11T06:48:50.794Z,101103.00
2022-09-11T06:51:20.746Z,101101.00
2022-09-11T06:53:47.809Z,101093.00
2022-09-11T06:56:18.787Z,101095.00
2022-09-11T06:58:46.232Z,101092.00
2022-09-11T07:01:19.356Z,101095.00
2022-09-11T07:03:49.810Z,101099.00
2022-09-11T07:06:26.377Z,101099.00
2022-09-11T07:09:00.729Z,101085.00
2022-09-11T07:11:29.003Z,101092.00
2022-09-11T07:13:55.795Z,101100.00
2022-09-11T07:16:22.493Z,101103.00
2022-09-11T07:18:49.849Z,101104.00
2022-09-11T07:21:21.411Z,101088.00
2022-09-11T07:23:52.923Z,101103.00
2022-09-11T07:26:21.629Z,101103.00
2022-09-11T07:28:52.171Z,101103.00
2022-09-11T07:31:26.707Z,101106.00
2022-09-11T07:33:54.995Z,101099.00
2022-09-11T07:36:25.473Z,101090.00
2022-09-11T07:38:54.652Z,101091.00
2022-09-11T07:41:23.798Z,101099.00
2022-09-11T07:44:03.303Z,101095.00
2022-09-11T07:46:31.041Z,101096.00
2022-09-11T07:48:58.705Z,101089.00
2022-09-11T07:51:26.840Z,101105.00
2022-09-11T07:53:54.586Z,101112.00
2022-09-11T07:56:24.689Z,101104.00
2022-09-11T07:58:54.946Z,101118.00
2022-09-11T08:01:25.843Z,101119.00
2022-09-11T08:03:58.425Z,101124.00
2022-09-11T08:06:27.676Z,101118.00
2022-09-11T08:09:06.062Z,101123.00
2022-09-11T08:11:37.501Z,101117.00
2022-09-11T08:14:04.880Z,101111.00
2022-09-11T08:16:31.994Z,101119.00
2022-09-11T08:18:58.945Z,101128.00
2022-09-11T08:21:26.438Z,101138.00
2022-09-11T08:23:53.718Z,101123.00
2022-09-11T08:26:27.573Z,101144.00
2022-09-11T08:28:56.898Z,101140.00
2022-09-11T08:31:26.953Z,101137.00
2022-09-11T08:33:55.673Z,101152.00
2022-09-11T08:36:23.388Z,101153.00
2022-09-11T08:38:52.500Z,101153.00
2022-09-11T08:41:35.770Z,101158.00
2022-09-11T08:44:27.998Z,101159.00
2022-09-11T08:47:11.821Z,101159.00
2022-09-11T08:49:43.279Z,101157.00
2022-09-11T08:52:15.101Z,101163.00
2022-09-11T08:54:43.785Z,101162.00
2022-09-11T08:57:55.267Z,101164.00
2022-09-11T09:01:04.069Z,101156.00
2022-09-11T09:04:01.324Z,101165.00
2022-09-11T09:06:43.606Z,101162.00
2022-09-11T09:09:37.007Z,101165.00
2022-09-11T09:12:39.343Z,101164.00
2022-09-11T09:15:29.581Z,101163.00
2022-09-11T09:18:12.536Z,101166.00
2022-09-11T09:21:00.899Z,101168.00
2022-09-11T09:23:39.860Z,101168.00
2022-09-11T09:26:17.592Z,101180.00
2022-09-11T09:28:50.566Z,101176.00
2022-09-11T09:31:25.249Z,101172.00
2022-09-11T09:34:19.742Z,101176.00
2022-09-11T09:37:07.559Z,101177.00
2022-09-11T09:39:36.742Z,101177.00
2022-09-11T09:42:37.751Z,101177.00
2022-09-11T09:45:44.575Z,101175.00
2022-09-11T09:48:12.323Z,101175.00
2022-09-11T09:50:43.870Z,101179.00
2022-09-11T09:53:53.360Z,101182.00
2022-09-11T09:56:23.747Z,101175.00
2022-09-11T09:59:12.847Z,101183.00
2022-09-11T10:01:39.989Z,101182.00
2022-09-11T10:04:24.806Z,101185.00
2022-09-11T10:07:16.617Z,101183.00
2022-09-11T10:09:50.217Z,101193.00
2022-09-11T10:12:26.494Z,101183.00
2022-09-11T10:15:00.812Z,101194.00
2022-09-11T10:17:34.784Z,101195.00
2022-09-11T10:20:16.450Z,101197.00
2022-09-11T10:22:43.884Z,101190.00
2022-09-11T10:25:18.380Z,101195.00
2022-09-11T10:28:15.121Z,101203.00
2022-09-11T10:30:55.405Z,101197.00
2022-09-11T10:33:38.347Z,101201.00
2022-09-11T10:36:09.977Z,101197.00
2022-09-11T10:38:50.405Z,101200.00
2022-09-11T10:41:22.689Z,101196.00
2022-09-11T10:44:07.767Z,101209.00
2022-09-11T10:46:40.817Z,101196.00
2022-09-11T10:49:23.250Z,101201.00
2022-09-11T10:52:15.965Z,101205.00
2022-09-11T10:55:07.381Z,101215.00
2022-09-11T10:57:52.707Z,101216.00
2022-09-11T11:00:23.040Z,101216.00
2022-09-11T11:03:05.150Z,101218.00
2022-09-11T11:06:04.103Z,101211.00
2022-09-11T11:09:30.796Z,101217.00
2022-09-11T11:12:41.793Z,101222.00
2022-09-11T11:15:57.617Z,101212.00
2022-09-11T11:18:56.935Z,101220.00
2022-09-11T11:21:50.143Z,101209.00
2022-09-11T11:24:23.957Z,101212.00
2022-09-11T11:27:17.758Z,101207.00
2022-09-11T11:30:40.015Z,101204.00
2022-09-11T11:33:34.205Z,101208.00
2022-09-11T11:36:53.610Z,101199.00
2022-09-11T11:39:33.472Z,101202.00
2022-09-11T11:42:21.857Z,101213.00
2022-09-11T11:45:19.117Z,101201.00
2022-09-11T11:47:48.674Z,101200.00
2022-09-11T11:50:31.864Z,101202.00
2022-09-11T11:53:24.976Z,101205.00
2022-09-11T11:56:19.068Z,101204.00
2022-09-11T11:59:02.592Z,101203.00
2022-09-11T12:01:39.955Z,101208.00
2022-09-11T12:04:42.674Z,101205.00
2022-09-11T12:07:25.465Z,101207.00
2022-09-11T12:09:56.219Z,101207.00
2022-09-11T12:12:27.967Z,101216.00
2022-09-11T12:15:03.633Z,101202.00
2022-09-11T12:17:36.812Z,101209.00
2022-09-11T12:20:15.718Z,101204.00
2022-09-11T12:22:48.940Z,101201.00
2022-09-11T12:25:21.437Z,101210.00
2022-09-11T12:27:50.633Z,101212.00
2022-09-11T12:30:17.446Z,101215.00
2022-09-11T12:32:54.061Z,101221.00
2022-09-11T12:35:49.284Z,101213.00
2022-09-11T12:38:39.060Z,101210.00
2022-09-11T12:41:26.485Z,101219.00
2022-09-11T12:43:54.675Z,101217.00
2022-09-11T12:46:21.325Z,101218.00
2022-09-11T12:49:20.443Z,101214.00
2022-09-11T12:51:53.897Z,101225.00
2022-09-11T12:54:39.587Z,101224.00
2022-09-11T12:57:26.228Z,101224.00
2022-09-11T12:59:59.455Z,101222.00
2022-09-11T13:02:39.388Z,101218.00
2022-09-11T13:05:20.816Z,101224.00
2022-09-11T13:07:53.822Z,101225.00
2022-09-11T13:10:38.419Z,101210.00
2022-09-11T13:13:35.934Z,101203.00
2022-09-11T13:16:30.980Z,101218.00
2022-09-11T13:19:10.225Z,101212.00
2022-09-11T13:21:40.514Z,101210.00
2022-09-11T13:24:31.045Z,101210.00
2022-09-11T13:27:15.488Z,101208.00
2022-09-11T13:29:43.487Z,101196.00
2022-09-11T13:32:15.726Z,101202.00
2022-09-11T13:34:51.061Z,101215.00
2022-09-11T13:37:45.630Z,101214.00
2022-09-11T13:40:25.554Z,101209.00
2022-09-11T13:42:52.985Z,101206.00
2022-09-11T13:45:22.277Z,101216.00
2022-09-11T13:47:49.119Z,101210.00
2022-09-11T13:50:17.953Z,101224.00
2022-09-11T13:52:47.021Z,101223.00
2022-09-11T13:55:27.083Z,101227.00
2022-09-11T13:58:03.566Z,101229.00
2022-09-11T14:01:12.645Z,101226.00
2022-09-11T14:03:45.868Z,101233.00
2022-09-11T14:06:20.859Z,101225.00
2022-09-11T14:08:56.034Z,101223.00
2022-09-11T14:11:31.901Z,101223.00
2022-09-11T14:14:29.954Z,101224.00
2022-09-11T14:17:01.318Z,101206.00
2022-09-11T14:19:36.030Z,101204.00
2022-09-11T14:22:16.876Z,101211.00
2022-09-11T14:25:18.460Z,101219.00
2022-09-11T14:27:45.478Z,101203.00
2022-09-11T14:30:37.690Z,101214.00
2022-09-11T14:33:23.257Z,101205.00
2022-09-11T14:35:53.322Z,101214.00
2022-09-11T14:38:23.804Z,101207.00
2022-09-11T14:41:07.021Z,101211.00
2022-09-11T14:43:39.205Z,101203.00
2022-09-11T14:46:06.122Z,101203.00
2022-09-11T14:48:35.561Z,101200.00
2022-09-11T14:51:11.408Z,101197.00
2022-09-11T14:53:42.961Z,101196.00
2022-09-11T14:56:10.317Z,101202.00
2022-09-11T14:58:37.029Z,101204.00
2022-09-11T15:01:03.864Z,101196.00
2022-09-11T15:03:30.970Z,101198.00
2022-09-11T15:05:58.537Z,101199.00
2022-09-11T15:08:25.856Z,101203.00
2022-09-11T15:10:53.657Z,101204.00
2022-09-11T15:13:21.374Z,101201.00
2022-09-11T15:15:48.242Z,101220.00
2022-09-11T15:18:15.125Z,101221.00
2022-09-11T15:20:41.920Z,101217.00
2022-09-11T15:23:08.846Z,101228.00
2022-09-11T15:25:35.565Z,101233.00
2022-09-11T15:28:02.430Z,101236.00
2022-09-11T15:30:29.362Z,101223.00
2022-09-11T15:32:56.109Z,101223.00
2022-09-11T15:35:23.691Z,101224.00
2022-09-11T15:37:50.751Z,101218.00
2022-09-11T15:40:17.934Z,101227.00
2022-09-11T15:42:44.929Z,101224.00
2022-09-11T15:45:13.002Z,101206.00
2022-09-11T15:47:41.378Z,101224.00
2022-09-11T15:50:08.937Z,101212.00
2022-09-11T15:52:36.954Z,101219.00
2022-09-11T15:55:04.796Z,101229.00
2022-09-11T15:57:31.535Z,101235.00
2022-09-11T15:59:58.320Z,101230.00
2022-09-11T16:02:25.260Z,101216.00
2022-09-11T16:04:53.905Z,101226.00
2022-09-11T16:07:21.617Z,101221.00
2022-09-11T16:09:48.410Z,101224.00
2022-09-11T16:12:15.685Z,101233.00
2022-09-11T16:14:43.364Z,101224.00
2022-09-11T16:17:10.439Z,101211.00
2022-09-11T16:19:38.615Z,101219.00
2022-09-11T16:22:07.166Z,101216.00
2022-09-11T16:24:37.537Z,101218.00
2022-09-11T16:27:09.298Z,101211.00
2022-09-11T16:30:15.970Z,101225.00
2022-09-11T16:32:31.394Z,101223.00
2022-09-11T16:34:59.541Z,101225.00
2022-09-11T16:37:26.784Z,101229.00
2022-09-11T16:39:53.683Z,101236.00
2022-09-11T16:42:21.330Z,101231.00
2022-09-11T16:44:49.653Z,101234.00
2022-09-11T16:47:17.939Z,101230.00
2022-09-11T16:50:05.840Z,101225.00
2022-09-11T16:52:32.573Z,101222.00
2022-09-11T16:54:59.473Z,101222.00
2022-09-11T16:57:27.344Z,101226.00
2022-09-11T16:59:54.324Z,101214.00
2022-09-11T17:02:21.280Z,101215.00
2022-09-11T17:04:48.184Z,101231.00
2022-09-11T17:07:14.917Z,101230.00
2022-09-11T17:09:43.473Z,101229.00
2022-09-11T17:12:10.539Z,101232.00
2022-09-11T17:14:37.713Z,101235.00
2022-09-11T17:17:04.920Z,101231.00
2022-09-11T17:19:31.853Z,101232.00
2022-09-11T17:21:59.837Z,101240.00
2022-09-11T17:24:26.583Z,101238.00
2022-09-11T17:26:53.367Z,101236.00
2022-09-11T17:29:20.126Z,101236.00
2022-09-11T17:31:47.003Z,101243.00
2022-09-11T17:34:14.644Z,101245.00
2022-09-11T17:36:41.554Z,101255.00
2022-09-11T17:39:08.782Z,101251.00
2022-09-11T17:41:35.609Z,101244.00
2022-09-11T17:44:02.478Z,101253.00
2022-09-11T17:46:29.511Z,101250.00
2022-09-11T17:48:56.273Z,101254.00
2022-09-11T17:51:26.286Z,101246.00
2022-09-11T17:53:57.567Z,101249.00
2022-09-11T17:56:30.676Z,101250.00
2022-09-11T17:58:59.920Z,101260.00
2022-09-11T18:01:28.970Z,101263.00
2022-09-11T18:03:58.338Z,101261.00
2022-09-11T18:06:34.477Z,101259.00
2022-09-11T18:09:15.051Z,101254.00
2022-09-11T18:11:45.518Z,101247.00
2022-09-11T18:14:13.873Z,101251.00
2022-09-11T18:16:43.583Z,101253.00
2022-09-11T18:19:12.055Z,101252.00
2022-09-11T18:21:38.950Z,101250.00
2022-09-11T18:24:06.637Z,101260.00
2022-09-11T18:26:40.901Z,101252.00
2022-09-11T18:29:12.356Z,101252.00
2022-09-11T18:31:44.026Z,101261.00
2022-09-11T18:34:15.342Z,101257.00
2022-09-11T18:36:42.524Z,101253.00
2022-09-11T18:39:11.860Z,101259.00
2022-09-11T18:41:39.082Z,101258.00
2022-09-11T18:44:10.401Z,101263.00
2022-09-11T18:46:37.510Z,101265.00
2022-09-11T18:49:05.498Z,101265.00
2022-09-11T18:51:33.498Z,101268.00
2022-09-11T18:54:00.434Z,101266.00
2022-09-11T18:56:29.594Z,101263.00
2022-09-11T18:58:56.378Z,101267.00
2022-09-11T19:01:26.658Z,101272.00
2022-09-11T19:03:53.892Z,101266.00
2022-09-11T19:06:27.504Z,101267.00
2022-09-11T19:08:56.786Z,101271.00
2022-09-11T19:11:26.993Z,101274.00
2022-09-11T19:14:00.365Z,101282.00
2022-09-11T19:16:27.174Z,101269.00
2022-09-11T19:18:53.941Z,101283.00
2022-09-11T19:21:23.537Z,101285.00
2022-09-11T19:23:57.894Z,101279.00
2022-09-11T19:26:32.530Z,101281.00
2022-09-11T19:29:00.294Z,101294.00
2022-09-11T19:31:29.654Z,101291.00
2022-09-11T19:34:00.821Z,101293.00
2022-09-11T19:36:34.491Z,101301.00
2022-09-11T19:39:03.492Z,101303.00
2022-09-11T19:41:34.667Z,101293.00
2022-09-11T19:44:04.130Z,101307.00
2022-09-11T19:46:33.485Z,101305.00
2022-09-11T19:49:03.611Z,101305.00
2022-09-11T19:51:37.357Z,101304.00
2022-09-11T19:54:05.741Z,101310.00
2022-09-11T19:56:36.940Z,101310.00
2022-09-11T19:59:06.323Z,101312.00
2022-09-11T20:01:33.479Z,101312.00
2022-09-11T20:04:00.963Z,101321.00
2022-09-11T20:06:32.523Z,101311.00
2022-09-11T20:09:27.300Z,101315.00
2022-09-11T20:11:47.588Z,101312.00
2022-09-11T20:14:14.451Z,101310.00
2022-09-11T20:16:41.619Z,101312.00
2022-09-11T20:19:10.418Z,101315.00
2022-09-11T20:21:37.311Z,101305.00
2022-09-11T20:24:06.387Z,101304.00
2022-09-11T20:26:33.931Z,101313.00
2022-09-11T20:29:22.286Z,101314.00
2022-09-11T20:31:51.123Z,101316.00
2022-09-11T20:34:19.782Z,101311.00
2022-09-11T20:36:47.184Z,101324.00
2022-09-11T20:39:15.585Z,101320.00
2022-09-11T20:41:42.702Z,101317.00
2022-09-11T20:44:10.096Z,101317.00
2022-09-11T20:46:37.027Z,101315.00
2022-09-11T20:49:05.186Z,101318.00
2022-09-11T20:51:33.412Z,101312.00
2022-09-11T20:54:00.815Z,101306.00
2022-09-11T20:56:28.389Z,101308.00
2022-09-11T20:58:55.738Z,101320.00
2022-09-11T21:01:25.125Z,101314.00
2022-09-11T21:03:55.567Z,101313.00
2022-09-11T21:06:27.202Z,101314.00
2022-09-11T21:09:00.667Z,101321.00
2022-09-11T21:11:30.534Z,101311.00
2022-09-11T21:13:57.711Z,101309.00
2022-09-11T21:16:24.506Z,101310.00
2022-09-11T21:18:55.042Z,101315.00
2022-09-11T21:21:24.375Z,101317.00
2022-09-11T21:24:01.233Z,101308.00
2022-09-11T21:26:30.189Z,101319.00
2022-09-11T21:28:58.940Z,101312.00
2022-09-11T21:31:27.288Z,101318.00
2022-09-11T21:33:54.655Z,101321.00
2022-09-11T21:36:21.393Z,101320.00
2022-09-11T21:38:48.124Z,101321.00
2022-09-11T21:41:15.304Z,101324.00
2022-09-11T21:43:42.071Z,101318.00
2022-09-11T21:46:10.095Z,101325.00
2022-09-11T21:48:40.021Z,101317.00
2022-09-11T21:51:16.036Z,101313.00
2022-09-11T21:53:48.194Z,101321.00
2022-09-11T21:56:22.161Z,101313.00
2022-09-11T21:58:50.429Z,101312.00
2022-09-11T22:01:18.561Z,101313.00
2022-09-11T22:03:45.449Z,101317.00
2022-09-11T22:06:13.455Z,101314.00
2022-09-11T22:08:42.613Z,101311.00
2022-09-11T22:11:10.636Z,101312.00
2022-09-11T22:13:38.194Z,101312.00
2022-09-11T22:16:09.730Z,101308.00
2022-09-11T22:18:40.601Z,101302.00
2022-09-11T22:21:08.957Z,101307.00
2022-09-11T22:23:36.177Z,101309.00
2022-09-11T22:26:11.786Z,101306.00
2022-09-11T22:28:39.453Z,101315.00
2022-09-11T22:31:13.385Z,101315.00
2022-09-11T22:33:42.023Z,101320.00
2022-09-11T22:36:36.257Z,101323.00
2022-09-11T22:39:05.316Z,101321.00
2022-09-11T22:41:32.292Z,101327.00
2022-09-11T22:43:59.037Z,101315.00
2022-09-11T22:46:26.810Z,101323.00
2022-09-11T22:48:55.402Z,101318.00
2022-09-11T22:51:22.636Z,101317.00
2022-09-11T22:53:49.358Z,101319.00
2022-09-11T22:56:16.772Z,101325.00
2022-09-11T22:58:43.765Z,101321.00
2022-09-11T23:01:21.123Z,101309.00
2022-09-11T23:03:52.157Z,101308.00
2022-09-11T23:06:39.242Z,101311.00
2022-09-11T23:09:10.163Z,101301.00
2022-09-11T23:11:36.902Z,101312.00
2022-09-11T23:14:03.746Z,101310.00
2022-09-11T23:16:31.223Z,101312.00
2022-09-11T23:19:01.188Z,101314.00
2022-09-11T23:21:30.168Z,101310.00
2022-09-11T23:23:58.620Z,101316.00
2022-09-11T23:26:28.607Z,101318.00
2022-09-11T23:28:56.238Z,101306.00
2022-09-11T23:31:27.873Z,101307.00
2022-09-11T23:33:58.050Z,101310.00
2022-09-11T23:36:24.973Z,101308.00
2022-09-11T23:38:52.241Z,101306.00
2022-09-11T23:41:19.578Z,101302.00
2022-09-11T23:43:46.839Z,101304.00
2022-09-11T23:46:16.377Z,101295.00
2022-09-11T23:48:43.614Z,101306.00
2022-09-11T23:51:11.280Z,101302.00
2022-09-11T23:53:40.056Z,101297.00
2022-09-11T23:56:07.926Z,101306.00
2022-09-11T23:58:44.023Z,101307.00
